createdAt,value
2019-02-09T00:01:01.567Z,100322.09
2019-02-09T00:03:34.324Z,100322.45
2019-02-09T00:06:06.132Z,100316.05
2019-02-09T00:08:37.287Z,100306.58
2019-02-09T00:11:08.623Z,100304.72
2019-02-09T00:13:40.770Z,100297.14
2019-02-09T00:16:12.961Z,100293.80
2019-02-09T00:18:44.149Z,100287.35
2019-02-09T00:21:15.261Z,100285.64
2019-02-09T00:23:46.375Z,100277.51
2019-02-09T00:26:17.602Z,100282.59
2019-02-09T00:28:48.827Z,100279.50
2019-02-09T00:31:19.989Z,100272.04
2019-02-09T00:33:51.144Z,100272.41
2019-02-09T00:36:22.635Z,100266.77
2019-02-09T00:38:53.770Z,100260.41
2019-02-09T00:41:24.828Z,100253.08
2019-02-09T00:43:55.923Z,100253.95
2019-02-09T00:46:27.084Z,100249.12
2019-02-09T00:48:58.232Z,100241.18
2019-02-09T00:51:29.385Z,100232.64
2019-02-09T00:54:00.437Z,100228.81
2019-02-09T00:56:31.510Z,100216.16
2019-02-09T00:59:03.022Z,100227.89
2019-02-09T01:01:35.344Z,100224.22
2019-02-09T01:04:07.264Z,100218.55
2019-02-09T01:06:38.597Z,100209.02
2019-02-09T01:09:12.406Z,100202.42
2019-02-09T01:11:44.265Z,100194.50
2019-02-09T01:14:15.351Z,100194.14
2019-02-09T01:16:46.542Z,100198.43
2019-02-09T01:19:17.845Z,100187.45
2019-02-09T01:21:49.002Z,100180.42
2019-02-09T01:24:20.152Z,100176.89
2019-02-09T01:26:51.322Z,100183.40
2019-02-09T01:29:22.543Z,100158.29
2019-02-09T01:31:55.488Z,100171.83
2019-02-09T01:34:26.937Z,100156.66
2019-02-09T01:36:58.212Z,100152.02
2019-02-09T01:39:29.280Z,100155.66
2019-02-09T01:42:00.419Z,100141.80
2019-02-09T01:44:31.585Z,100147.50
2019-02-09T01:47:02.798Z,100131.69
2019-02-09T01:49:34.134Z,100120.23
2019-02-09T01:52:05.414Z,100122.80
2019-02-09T01:54:36.548Z,100120.88
2019-02-09T01:57:07.780Z,100117.70
2019-02-09T01:59:38.934Z,100105.53
2019-02-09T02:02:11.481Z,100106.81
2019-02-09T02:04:42.794Z,100100.72
2019-02-09T02:07:14.118Z,100098.28
2019-02-09T02:09:45.275Z,100083.28
2019-02-09T02:12:16.415Z,100087.43
2019-02-09T02:14:47.502Z,100084.73
2019-02-09T02:17:19.204Z,100071.14
2019-02-09T02:19:51.659Z,100071.14
2019-02-09T02:22:22.806Z,100070.43
2019-02-09T02:24:53.899Z,100078.63
2019-02-09T02:27:26.941Z,100066.31
2019-02-09T02:29:58.290Z,100054.73
2019-02-09T02:32:29.460Z,100057.70
2019-02-09T02:35:00.528Z,100056.42
2019-02-09T02:37:31.809Z,100046.01
2019-02-09T02:40:02.996Z,100053.77
2019-02-09T02:42:34.114Z,100048.09
2019-02-09T02:45:05.847Z,100045.56
2019-02-09T02:47:37.579Z,100037.80
2019-02-09T02:50:11.025Z,100038.78
2019-02-09T02:52:43.309Z,100025.59
2019-02-09T02:55:16.687Z,100025.08
2019-02-09T02:57:50.603Z,100029.98
2019-02-09T03:00:32.561Z,100029.13
2019-02-09T03:03:00.596Z,100031.44
2019-02-09T03:05:31.800Z,100028.12
2019-02-09T03:08:03.113Z,100021.81
2019-02-09T03:10:34.267Z,100018.22
2019-02-09T03:13:07.091Z,100012.37
2019-02-09T03:15:38.219Z,100007.13
2019-02-09T03:18:09.457Z,100009.67
2019-02-09T03:20:40.584Z,100010.77
2019-02-09T03:23:11.734Z,100002.75
2019-02-09T03:25:43.839Z,99996.64
2019-02-09T03:28:15.166Z,99997.48
2019-02-09T03:30:48.801Z,99981.69
2019-02-09T03:33:19.655Z,99981.09
2019-02-09T03:35:50.919Z,99980.71
2019-02-09T03:38:22.873Z,99973.97
2019-02-09T03:40:55.866Z,99978.02
2019-02-09T03:43:27.289Z,99967.17
2019-02-09T03:45:58.445Z,99965.29
2019-02-09T03:48:29.926Z,99956.39
2019-02-09T03:51:01.092Z,99950.33
2019-02-09T03:53:33.150Z,99955.42
2019-02-09T03:56:04.313Z,99950.33
2019-02-09T03:58:35.481Z,99945.27
2019-02-09T04:01:06.628Z,99944.38
2019-02-09T04:03:38.243Z,99936.42
2019-02-09T04:06:09.400Z,99943.88
2019-02-09T04:08:41.152Z,99943.84
2019-02-09T04:11:12.862Z,99934.48
2019-02-09T04:13:44.005Z,99933.37
2019-02-09T04:16:15.152Z,99931.70
2019-02-09T04:18:46.333Z,99923.61
2019-02-09T04:21:18.385Z,99917.45
2019-02-09T04:23:49.621Z,99916.31
2019-02-09T04:26:20.715Z,99914.33
2019-02-09T04:28:51.850Z,99911.30
2019-02-09T04:31:22.913Z,99910.59
2019-02-09T04:33:54.062Z,99898.15
2019-02-09T04:36:25.845Z,99887.27
2019-02-09T04:38:56.963Z,99900.89
2019-02-09T04:41:28.093Z,99892.80
2019-02-09T04:43:59.144Z,99879.57
2019-02-09T04:46:30.250Z,99886.52
2019-02-09T04:49:02.447Z,99882.02
2019-02-09T04:51:34.263Z,99880.14
2019-02-09T04:54:05.518Z,99889.34
2019-02-09T04:56:37.077Z,99879.81
2019-02-09T04:59:08.317Z,99881.50
2019-02-09T05:01:39.385Z,99879.52
2019-02-09T05:04:10.528Z,99871.34
2019-02-09T05:06:41.774Z,99860.45
2019-02-09T05:09:12.898Z,99866.03
2019-02-09T05:11:44.171Z,99862.37
2019-02-09T05:14:15.373Z,99860.06
2019-02-09T05:16:48.764Z,99849.60
2019-02-09T05:19:19.932Z,99851.88
2019-02-09T05:21:51.101Z,99848.67
2019-02-09T05:24:22.850Z,99853.83
2019-02-09T05:26:53.978Z,99847.20
2019-02-09T05:29:26.382Z,99843.48
2019-02-09T05:31:57.517Z,99843.16
2019-02-09T05:34:28.740Z,99844.33
2019-02-09T05:37:00.107Z,99839.08
2019-02-09T05:39:31.375Z,99827.33
2019-02-09T05:42:02.596Z,99813.97
2019-02-09T05:44:34.192Z,99813.97
2019-02-09T05:47:05.624Z,99828.33
2019-02-09T05:49:36.815Z,99823.32
2019-02-09T05:52:08.717Z,99827.59
2019-02-09T05:54:39.787Z,99817.26
2019-02-09T05:57:10.932Z,99812.05
2019-02-09T05:59:42.518Z,99814.73
2019-02-09T06:02:13.932Z,99814.83
2019-02-09T06:04:45.070Z,99808.19
2019-02-09T06:07:16.295Z,99823.14
2019-02-09T06:09:47.404Z,99814.35
2019-02-09T06:12:18.741Z,99808.51
2019-02-09T06:14:49.839Z,99802.55
2019-02-09T06:17:21.331Z,99793.80
2019-02-09T06:19:54.394Z,99801.85
2019-02-09T06:22:25.680Z,99798.88
2019-02-09T06:24:56.832Z,99801.16
2019-02-09T06:27:28.718Z,99796.81
2019-02-09T06:29:59.816Z,99796.94
2019-02-09T06:32:33.561Z,99805.53
2019-02-09T06:35:05.695Z,99793.40
2019-02-09T06:37:38.919Z,99799.36
2019-02-09T06:40:11.590Z,99794.66
2019-02-09T06:42:44.569Z,99800.38
2019-02-09T06:45:17.618Z,99796.30
2019-02-09T06:47:48.859Z,99800.77
2019-02-09T06:50:25.663Z,99795.08
2019-02-09T06:52:56.963Z,99789.59
2019-02-09T06:55:28.138Z,99772.84
2019-02-09T06:57:59.411Z,99782.28
2019-02-09T07:00:30.749Z,99781.65
2019-02-09T07:03:02.902Z,99778.33
2019-02-09T07:05:34.107Z,99786.80
2019-02-09T07:08:05.621Z,99772.94
2019-02-09T07:10:37.317Z,99771.59
2019-02-09T07:13:08.519Z,99778.71
2019-02-09T07:15:39.866Z,99769.22
2019-02-09T07:18:11.180Z,99768.80
2019-02-09T07:20:43.203Z,99765.86
2019-02-09T07:23:14.392Z,99761.77
2019-02-09T07:25:45.554Z,99752.00
2019-02-09T07:28:17.225Z,99753.67
2019-02-09T07:30:48.401Z,99752.39
2019-02-09T07:33:19.717Z,99744.88
2019-02-09T07:35:51.944Z,99748.58
2019-02-09T07:38:23.085Z,99745.20
2019-02-09T07:40:54.277Z,99746.19
2019-02-09T07:43:25.461Z,99743.91
2019-02-09T07:45:56.696Z,99734.09
2019-02-09T07:48:28.525Z,99731.16
2019-02-09T07:50:59.736Z,99742.32
2019-02-09T07:53:31.040Z,99728.78
2019-02-09T07:56:03.233Z,99721.09
2019-02-09T07:58:34.479Z,99709.91
2019-02-09T08:01:05.998Z,99716.80
2019-02-09T08:03:37.415Z,99710.69
2019-02-09T08:06:08.892Z,99711.44
2019-02-09T08:08:40.080Z,99708.39
2019-02-09T08:11:11.355Z,99703.63
2019-02-09T08:13:42.973Z,99707.38
2019-02-09T08:16:14.352Z,99707.10
2019-02-09T08:18:45.649Z,99702.78
2019-02-09T08:21:18.308Z,99711.70
2019-02-09T08:23:49.730Z,99696.88
2019-02-09T08:26:21.152Z,99695.78
2019-02-09T08:28:53.408Z,99692.55
2019-02-09T08:31:25.054Z,99418.06
2019-02-09T08:33:59.463Z,99681.91
2019-02-09T08:36:33.013Z,99688.80
2019-02-09T08:39:05.813Z,99670.28
2019-02-09T08:41:38.425Z,99661.84
2019-02-09T08:44:09.683Z,99669.63
2019-02-09T08:46:43.790Z,99667.23
2019-02-09T08:49:15.557Z,99666.13
2019-02-09T08:51:46.849Z,99665.36
2019-02-09T08:54:18.005Z,99661.22
2019-02-09T08:56:49.196Z,99666.45
2019-02-09T08:59:20.350Z,99664.48
2019-02-09T09:01:51.455Z,99659.38
2019-02-09T09:04:22.805Z,99650.67
2019-02-09T09:06:54.151Z,99644.33
2019-02-09T09:09:25.433Z,99652.73
2019-02-09T09:12:01.795Z,99642.76
2019-02-09T09:14:33.019Z,99648.77
2019-02-09T09:17:13.318Z,99640.63
2019-02-09T09:19:44.525Z,99638.31
2019-02-09T09:22:15.647Z,99636.17
2019-02-09T09:24:46.952Z,99638.15
2019-02-09T09:27:18.444Z,99640.13
2019-02-09T09:29:49.616Z,99633.89
2019-02-09T09:32:27.502Z,99630.45
2019-02-09T09:34:55.707Z,99629.67
2019-02-09T09:37:26.964Z,99634.11
2019-02-09T09:39:58.133Z,99632.53
2019-02-09T09:42:29.329Z,99622.19
2019-02-09T09:45:00.514Z,99618.95
2019-02-09T09:47:33.457Z,99620.30
2019-02-09T09:50:05.867Z,99613.66
2019-02-09T09:52:37.048Z,99608.27
2019-02-09T09:55:08.709Z,99612.64
2019-02-09T09:57:40.117Z,99611.14
2019-02-09T10:00:15.978Z,99588.31
2019-02-09T10:02:47.149Z,99603.27
2019-02-09T10:05:18.540Z,99600.18
2019-02-09T10:07:49.942Z,99597.48
2019-02-09T10:10:21.305Z,99595.58
2019-02-09T10:12:52.815Z,99591.08
2019-02-09T10:15:24.639Z,99597.87
2019-02-09T10:17:55.978Z,99583.28
2019-02-09T10:20:27.233Z,99589.80
2019-02-09T10:22:58.540Z,99511.05
2019-02-09T10:25:29.857Z,99583.38
2019-02-09T10:28:04.925Z,99584.34
2019-02-09T10:30:37.051Z,99574.48
2019-02-09T10:33:10.509Z,99570.14
2019-02-09T10:35:41.699Z,99566.48
2019-02-09T10:38:12.851Z,99561.61
2019-02-09T10:40:45.629Z,99567.84
2019-02-09T10:43:16.867Z,99560.60
2019-02-09T10:45:48.970Z,99558.86
2019-02-09T10:48:23.223Z,99554.81
2019-02-09T10:50:54.601Z,99541.56
2019-02-09T10:53:29.078Z,99546.00
2019-02-09T10:56:00.245Z,99550.44
2019-02-09T10:58:32.077Z,99545.93
2019-02-09T11:01:12.013Z,99543.92
2019-02-09T11:03:43.258Z,99548.69
2019-02-09T11:06:14.424Z,99542.30
2019-02-09T11:08:45.606Z,99539.66
2019-02-09T11:11:16.821Z,99544.88
2019-02-09T11:13:48.074Z,99534.92
2019-02-09T11:16:19.282Z,99529.42
2019-02-09T11:18:50.534Z,99527.28
2019-02-09T11:21:21.784Z,99521.02
2019-02-09T11:23:53.086Z,99517.30
2019-02-09T11:26:24.232Z,99514.82
2019-02-09T11:28:55.669Z,99519.59
2019-02-09T11:31:26.812Z,99506.63
2019-02-09T11:33:58.269Z,99505.59
2019-02-09T11:36:29.427Z,99501.95
2019-02-09T11:39:00.595Z,99500.91
2019-02-09T11:41:33.955Z,99495.84
2019-02-09T11:44:05.945Z,99498.09
2019-02-09T11:46:37.621Z,99422.31
2019-02-09T11:49:08.810Z,99497.87
2019-02-09T11:51:39.988Z,99488.08
2019-02-09T11:54:15.032Z,99491.58
2019-02-09T11:56:46.183Z,99493.66
2019-02-09T12:00:05.074Z,99491.58
2019-02-09T12:02:37.036Z,99487.42
2019-02-09T12:05:09.892Z,99485.89
2019-02-09T12:07:41.195Z,99479.23
2019-02-09T12:10:13.235Z,99481.44
2019-02-09T12:12:44.473Z,99472.70
2019-02-09T12:15:19.173Z,99472.99
2019-02-09T12:17:50.400Z,99471.14
2019-02-09T12:20:21.687Z,99474.67
2019-02-09T12:22:54.034Z,99462.76
2019-02-09T12:25:28.167Z,99466.26
2019-02-09T12:27:59.552Z,99464.83
2019-02-09T13:27:56.923Z,99432.27
2019-02-09T13:30:50.919Z,99434.53
2019-02-09T13:33:40.674Z,99434.45
2019-02-09T13:36:38.466Z,99436.64
2019-02-09T13:39:28.712Z,99425.09
2019-02-09T13:42:18.782Z,99427.09
2019-02-09T13:45:18.831Z,99426.36
2019-02-09T13:48:08.624Z,99422.72
2019-02-09T13:50:58.478Z,99422.94
2019-02-09T13:54:37.491Z,99424.40
2019-02-09T13:57:33.034Z,99420.64
2019-02-09T14:00:23.629Z,99421.16
2019-02-09T14:03:13.827Z,99417.33
2019-02-09T14:06:08.198Z,99417.33
2019-02-09T14:08:36.330Z,99418.79
2019-02-09T14:11:06.979Z,99423.34
2019-02-09T14:13:37.652Z,99417.33
2019-02-09T14:16:08.548Z,99423.53
2019-02-09T14:18:53.188Z,99350.39
2019-02-09T14:21:23.819Z,99416.50
2019-02-09T14:23:56.302Z,99412.86
2019-02-09T14:26:26.955Z,99406.52
2019-02-09T14:28:58.713Z,99408.30
2019-02-09T14:31:29.258Z,99403.42
2019-02-09T14:34:00.032Z,99403.64
2019-02-09T14:36:30.743Z,99408.59
2019-02-09T14:39:01.355Z,99406.12
2019-02-09T14:41:33.572Z,99406.52
2019-02-09T14:44:04.368Z,99402.41
2019-02-09T14:46:34.912Z,99404.84
2019-02-09T14:49:05.944Z,99406.55
2019-02-09T14:51:36.534Z,99410.70
2019-02-09T14:54:10.916Z,99402.61
2019-02-09T14:56:41.638Z,99403.64
2019-02-09T14:59:12.204Z,99408.70
2019-02-09T15:01:42.869Z,99394.09
2019-02-09T15:29:23.833Z,99383.91
2019-02-09T15:37:48.102Z,99377.25
2019-02-09T15:40:19.725Z,99389.41
2019-02-09T15:42:53.707Z,99382.02
2019-02-09T15:45:27.227Z,99376.77
2019-02-09T15:48:00.377Z,99332.77
2019-02-09T15:50:35.190Z,99367.42
2019-02-09T15:53:08.671Z,99376.45
2019-02-09T15:55:39.206Z,99366.50
2019-02-09T15:58:09.888Z,99373.75
2019-02-09T16:00:46.153Z,99374.16
2019-02-09T16:03:29.058Z,99372.91
2019-02-09T16:12:03.717Z,99370.44
2019-02-09T16:14:37.308Z,99369.38
2019-02-09T16:17:07.924Z,99370.22
2019-02-09T16:19:38.539Z,99368.55
2019-02-09T16:22:10.348Z,99378.92
2019-02-09T16:24:41.003Z,99370.84
2019-02-09T16:27:11.625Z,99373.13
2019-02-09T16:29:45.224Z,99374.38
2019-02-09T16:32:18.738Z,99367.72
2019-02-09T16:34:49.285Z,99371.57
2019-02-09T16:37:19.865Z,99376.13
2019-02-09T16:39:50.487Z,99384.31
2019-02-09T16:42:21.136Z,99381.00
2019-02-09T16:44:51.772Z,99388.97
2019-02-09T16:47:22.413Z,99386.86
2019-02-09T16:49:57.519Z,99393.60
2019-02-09T16:52:30.365Z,99391.34
2019-02-09T16:55:01.002Z,99392.72
2019-02-09T16:57:31.669Z,99385.77
2019-02-09T17:00:02.309Z,99391.78
2019-02-09T17:02:34.412Z,99383.87
2019-02-09T17:05:08.361Z,99379.55
2019-02-09T17:07:39.048Z,99390.11
2019-02-09T17:10:10.587Z,99380.38
2019-02-09T17:12:47.137Z,99385.44
2019-02-09T17:15:20.063Z,99386.83
2019-02-09T17:17:50.746Z,99384.75
2019-02-09T17:20:21.478Z,99378.13
2019-02-09T17:22:52.234Z,99380.70
2019-02-09T17:25:23.071Z,99382.75
2019-02-09T17:27:53.690Z,99382.31
2019-02-09T17:30:25.685Z,99378.41
2019-02-09T17:32:56.444Z,99380.38
2019-02-09T17:35:27.392Z,99379.03
2019-02-09T17:37:58.126Z,99379.44
2019-02-09T17:40:34.244Z,99374.48
2019-02-09T17:43:06.154Z,99380.92
2019-02-09T17:45:58.008Z,99320.65
2019-02-09T17:48:28.670Z,99373.97
2019-02-09T17:50:59.337Z,99369.82
2019-02-09T17:53:30.015Z,99380.16
2019-02-09T17:56:00.556Z,99374.30
2019-02-09T17:58:31.333Z,99373.88
2019-02-09T18:01:04.893Z,99311.66
2019-02-09T18:03:35.554Z,99344.52
2019-02-09T18:06:08.211Z,99382.91
2019-02-09T18:08:38.821Z,99375.66
2019-02-09T18:11:09.377Z,99371.41
2019-02-09T18:13:40.038Z,99367.77
2019-02-09T18:16:10.664Z,99367.14
2019-02-09T18:18:41.301Z,99350.34
2019-02-09T18:21:12.039Z,99288.78
2019-02-09T18:23:42.579Z,99345.29
2019-02-09T18:26:13.295Z,99356.17
2019-02-09T18:28:44.028Z,99348.19
2019-02-09T18:31:15.576Z,99345.48
2019-02-09T18:33:46.149Z,99341.73
2019-02-09T18:36:16.707Z,99337.00
2019-02-09T18:38:52.497Z,99332.95
2019-02-09T18:41:23.199Z,99337.61
2019-02-09T18:43:57.574Z,99333.16
2019-02-09T18:46:28.330Z,99331.48
2019-02-09T18:48:59.026Z,99329.20
2019-02-09T18:51:31.245Z,99330.66
2019-02-09T18:54:01.984Z,99336.35
2019-02-09T18:56:32.760Z,99329.71
2019-02-09T18:59:07.519Z,99325.88
2019-02-09T19:01:38.124Z,99338.34
2019-02-09T19:04:08.924Z,99317.58
2019-02-09T19:06:40.498Z,99304.93
2019-02-09T19:09:11.261Z,99318.61
2019-02-09T19:11:42.068Z,99319.47
2019-02-09T19:14:12.910Z,99316.14
2019-02-09T19:16:43.520Z,99299.86
2019-02-09T19:19:15.048Z,99307.11
2019-02-09T19:21:45.638Z,99303.05
2019-02-09T19:24:16.327Z,99297.90
2019-02-09T19:26:46.941Z,99295.91
2019-02-09T19:29:17.564Z,99300.59
2019-02-09T19:31:48.190Z,99293.53
2019-02-09T19:34:18.868Z,99301.09
2019-02-09T19:36:49.414Z,99301.62
2019-02-09T19:39:19.966Z,99292.08
2019-02-09T19:41:50.605Z,99301.41
2019-02-09T19:44:21.389Z,99301.22
2019-02-09T19:46:53.648Z,99302.44
2019-02-09T19:49:24.184Z,99306.28
2019-02-09T19:51:54.727Z,99304.31
2019-02-09T19:54:25.347Z,99305.46
2019-02-09T19:56:55.965Z,99296.42
2019-02-09T19:59:26.593Z,99307.95
2019-02-09T20:01:57.148Z,99305.46
2019-02-09T20:04:27.733Z,99295.41
2019-02-09T20:06:58.347Z,99295.20
2019-02-09T20:09:28.999Z,99291.77
2019-02-09T20:11:59.651Z,99288.33
2019-02-09T20:14:30.377Z,99283.98
2019-02-09T20:17:02.062Z,99277.44
2019-02-09T20:19:32.676Z,99281.28
2019-02-09T20:22:03.315Z,99272.91
2019-02-09T20:24:33.890Z,99271.97
2019-02-09T20:27:04.698Z,99275.81
2019-02-09T20:29:38.211Z,99273.20
2019-02-09T20:32:08.947Z,99268.45
2019-02-09T20:34:41.678Z,99269.16
2019-02-09T20:37:12.284Z,99266.91
2019-02-09T20:39:42.977Z,99261.06
2019-02-09T20:42:13.588Z,99248.01
2019-02-09T20:44:46.435Z,99249.36
2019-02-09T20:47:21.827Z,99241.48
2019-02-09T20:49:52.412Z,99235.48
2019-02-09T20:52:23.074Z,99235.91
2019-02-09T20:54:53.756Z,99227.17
2019-02-09T20:57:24.375Z,99220.36
2019-02-09T20:59:55.091Z,99227.17
2019-02-09T21:02:25.750Z,99214.36
2019-02-09T21:04:56.391Z,99211.84
2019-02-09T21:07:27.054Z,99200.79
2019-02-09T21:09:57.632Z,99197.15
2019-02-09T21:12:28.241Z,99195.98
2019-02-09T21:14:58.942Z,99193.30
2019-02-09T21:17:29.486Z,99194.97
2019-02-09T21:20:00.047Z,99193.64
2019-02-09T21:22:37.426Z,99181.16
2019-02-09T21:25:11.063Z,99182.20
2019-02-09T21:27:41.697Z,99170.64
2019-02-09T21:30:14.163Z,99164.11
2019-02-09T21:32:51.497Z,99167.31
2019-02-09T21:35:22.268Z,99157.98
2019-02-09T21:37:52.879Z,99156.55
2019-02-09T21:40:35.616Z,99149.51
2019-02-09T21:43:07.978Z,99155.42
2019-02-09T21:45:44.916Z,99145.25
2019-02-09T21:48:10.991Z,99151.79
2019-02-09T21:50:41.638Z,99142.44
2019-02-09T21:53:12.315Z,99142.44
2019-02-09T21:55:43.010Z,99144.72
2019-02-09T21:58:13.616Z,99127.62
2019-02-09T22:00:44.621Z,99128.48
2019-02-09T22:03:15.257Z,99124.51
2019-02-09T22:05:51.635Z,99122.23
2019-02-09T22:08:19.965Z,99112.16
2019-02-09T22:10:50.642Z,99115.27
2019-02-09T22:13:21.343Z,99113.80
2019-02-09T22:15:52.063Z,99112.58
2019-02-09T22:18:22.782Z,99105.42
2019-02-09T22:20:56.817Z,99108.73
2019-02-09T22:23:27.549Z,99099.80
2019-02-09T22:25:58.169Z,99099.07
2019-02-09T22:28:28.821Z,99108.28
2019-02-09T22:30:59.518Z,99099.07
2019-02-09T22:33:31.104Z,99100.92
2019-02-09T22:36:01.704Z,99088.44
2019-02-09T22:38:32.387Z,99090.85
2019-02-09T22:41:02.995Z,99082.76
2019-02-09T22:43:33.611Z,99079.00
2019-02-09T22:46:04.361Z,99082.85
2019-02-09T22:48:34.936Z,99068.50
2019-02-09T22:51:05.551Z,99076.68
2019-02-09T22:53:36.159Z,99075.47
2019-02-09T22:56:07.756Z,99074.20
2019-02-09T22:58:38.323Z,99070.91
2019-02-09T23:01:23.539Z,99075.73
2019-02-09T23:04:16.273Z,99008.32
2019-02-09T23:07:03.745Z,99067.15
2019-02-09T23:09:34.639Z,99066.55
2019-02-09T23:12:05.451Z,99066.77
2019-02-09T23:14:36.086Z,99063.47
2019-02-09T23:17:06.731Z,99068.12
2019-02-09T23:19:37.258Z,99057.44
2019-02-09T23:22:09.721Z,99054.32
2019-02-09T23:24:40.625Z,99053.44
2019-02-09T23:27:11.184Z,99047.63
2019-02-09T23:29:41.924Z,99036.70
2019-02-09T23:32:12.591Z,99037.58
2019-02-09T23:34:43.131Z,99037.27
2019-02-09T23:37:13.767Z,99032.70
2019-02-09T23:39:44.291Z,99031.27
2019-02-09T23:42:14.909Z,99019.05
2019-02-09T23:44:45.555Z,99019.36
2019-02-09T23:47:16.145Z,99019.50
2019-02-09T23:49:46.849Z,99015.29
2019-02-09T23:52:17.634Z,99015.46
2019-02-09T23:54:48.290Z,99019.19
2019-02-09T23:57:18.915Z,99005.53
2019-02-09T23:59:49.447Z,98998.50
